Time;durP1;ratioP1;P1;durP2;ratioP2;P2;SDS_P1;SDS_P2;PMS_P1;PMS_P2;Temp;Humidity;BMP_temperature;BMP_pressure;BME280_temperature;BME280_humidity;BME280_pressure;Samples;Min_cycle;Max_cycle;Signal;HPM_P1;HPM_P2
2022/05/25 00:00:25;;;;;;;11.93;4.78;;;10.40;99.90;;;;;;4986756;28;20128;-69
2022/05/25 00:02:52;;;;;;;12.38;5.35;;;10.40;99.90;;;;;;4965606;28;20047;-69
2022/05/25 00:05:18;;;;;;;6.00;4.45;;;10.40;99.90;;;;;;4954390;28;20043;-69
2022/05/25 00:07:44;;;;;;;10.63;5.63;;;10.30;99.90;;;;;;4972718;28;20054;-69
2022/05/25 00:10:11;;;;;;;9.32;5.40;;;10.30;99.90;;;;;;4970356;28;20485;-69
2022/05/25 00:12:36;;;;;;;12.57;6.10;;;10.30;99.90;;;;;;4975913;28;20073;-69
2022/05/25 00:15:03;;;;;;;7.45;5.10;;;10.30;99.90;;;;;;4998376;28;20110;-69
2022/05/25 00:17:29;;;;;;;6.45;5.18;;;10.30;99.90;;;;;;4967807;28;20075;-69
2022/05/25 00:20:00;;;;;;;6.20;5.32;;;10.30;99.90;;;;;;4967558;28;20082;-69
2022/05/25 00:22:44;;;;;;;7.45;5.70;;;10.30;99.90;;;;;;4971216;28;20051;-69
2022/05/25 00:25:30;;;;;;;7.55;6.10;;;10.20;99.90;;;;;;4971512;28;20039;-69
2022/05/25 00:27:56;;;;;;;10.48;6.10;;;10.20;99.90;;;;;;4974754;28;20488;-69
2022/05/25 00:30:23;;;;;;;13.50;6.30;;;10.10;99.90;;;;;;4968145;28;20066;-69
2022/05/25 00:32:48;;;;;;;8.23;6.28;;;10.10;99.90;;;;;;4967710;28;20451;-69
2022/05/25 00:35:17;;;;;;;8.95;5.85;;;10.20;99.90;;;;;;4969895;28;20106;-69
2022/05/25 00:37:43;;;;;;;8.38;6.18;;;10.10;99.90;;;;;;4979925;28;20536;-69
2022/05/25 00:40:17;;;;;;;7.07;6.03;;;10.10;99.90;;;;;;4968876;28;20094;-69
2022/05/25 00:42:43;;;;;;;12.57;6.43;;;10.10;99.90;;;;;;4970474;28;20062;-69
2022/05/25 00:45:09;;;;;;;12.07;6.13;;;10.10;99.90;;;;;;4969307;28;20039;-69
2022/05/25 00:47:39;;;;;;;14.63;6.70;;;10.00;99.90;;;;;;4966511;28;20039;-69
2022/05/25 00:50:05;;;;;;;12.82;6.25;;;10.00;99.90;;;;;;4967381;28;20382;-69
2022/05/25 00:52:32;;;;;;;11.00;6.00;;;10.00;99.90;;;;;;4972708;28;20113;-68
2022/05/25 00:55:06;;;;;;;10.25;7.22;;;10.00;99.90;;;;;;4973024;28;20031;-69
2022/05/25 00:57:40;;;;;;;12.27;6.80;;;10.00;99.90;;;;;;4971572;28;20055;-69
2022/05/25 01:00:08;;;;;;;13.48;7.72;;;10.00;99.90;;;;;;4970604;28;20105;-68
2022/05/25 01:02:37;;;;;;;9.98;7.65;;;9.90;99.90;;;;;;4967767;28;20051;-69
2022/05/25 01:05:04;;;;;;;12.57;7.88;;;10.00;99.90;;;;;;4964996;28;20078;-69
2022/05/25 01:07:50;;;;;;;9.48;7.63;;;9.90;99.90;;;;;;4966161;28;20059;-69
2022/05/25 01:10:25;;;;;;;11.50;8.00;;;9.90;99.90;;;;;;4972454;28;20047;-69
2022/05/25 01:12:53;;;;;;;11.15;7.53;;;10.00;99.90;;;;;;4971579;28;20155;-69
2022/05/25 01:15:54;;;;;;;14.50;8.30;;;9.90;99.90;;;;;;4971365;28;20126;-69
2022/05/25 01:18:28;;;;;;;11.38;7.78;;;9.90;99.90;;;;;;4972040;28;20043;-69
2022/05/25 01:21:41;;;;;;;10.93;7.00;;;9.90;99.90;;;;;;4971270;28;20113;-69
2022/05/25 01:24:19;;;;;;;15.88;7.40;;;9.90;99.90;;;;;;4966573;28;20055;-69
2022/05/25 01:27:35;;;;;;;13.55;7.95;;;9.80;99.90;;;;;;4969272;28;20082;-69
2022/05/25 01:30:06;;;;;;;9.68;7.78;;;9.80;99.90;;;;;;5010120;28;20037;-69
2022/05/25 01:32:58;;;;;;;12.27;8.40;;;9.80;99.90;;;;;;4993802;28;20124;-69
2022/05/25 01:35:50;;;;;;;12.00;8.20;;;9.80;99.90;;;;;;4971577;28;20067;-69
2022/05/25 01:38:47;;;;;;;12.20;7.80;;;9.80;99.90;;;;;;4985741;28;20049;-69
2022/05/25 01:41:33;;;;;;;11.35;8.43;;;9.70;99.90;;;;;;4971005;28;20050;-69
2022/05/25 01:44:22;;;;;;;16.63;9.10;;;9.70;99.90;;;;;;4969641;28;20204;-69
2022/05/25 01:46:56;;;;;;;13.30;9.57;;;9.70;99.90;;;;;;4973726;28;20046;-69
2022/05/25 01:49:27;;;;;;;11.35;8.75;;;9.70;99.90;;;;;;4973311;28;20038;-69
2022/05/25 01:52:01;;;;;;;13.98;9.57;;;9.70;99.90;;;;;;4969044;28;20428;-69
2022/05/25 01:54:32;;;;;;;14.10;9.88;;;9.80;99.90;;;;;;4970400;28;20421;-69
2022/05/25 01:57:07;;;;;;;13.85;10.57;;;9.70;99.90;;;;;;4967806;28;20061;-69
2022/05/25 01:59:32;;;;;;;18.05;10.40;;;9.70;99.90;;;;;;4971563;28;20050;-69
2022/05/25 02:04:48;;;;;;;17.02;11.07;;;9.70;99.90;;;;;;4963247;28;20897;-69
2022/05/25 02:07:38;;;;;;;17.00;10.77;;;9.70;99.90;;;;;;4967430;28;20074;-69
2022/05/25 02:10:51;;;;;;;15.02;11.48;;;9.70;99.90;;;;;;4965411;28;20045;-69
2022/05/25 02:13:26;;;;;;;17.98;11.02;;;9.70;99.90;;;;;;4976123;28;20050;-68
2022/05/25 02:16:11;;;;;;;19.98;11.73;;;9.70;99.90;;;;;;4969256;28;20074;-69
2022/05/25 02:18:44;;;;;;;19.77;11.93;;;9.60;99.90;;;;;;4979914;28;20046;-69
2022/05/25 02:21:34;;;;;;;19.40;12.70;;;9.70;99.90;;;;;;4970167;28;20497;-69
2022/05/25 02:24:11;;;;;;;;;;;9.70;99.90;;;;;;4966055;28;20687;-68
2022/05/25 02:26:53;;;;;;;19.50;12.55;;;9.70;99.90;;;;;;4974651;28;19932;-69
2022/05/25 02:29:24;;;;;;;18.00;13.35;;;9.70;99.90;;;;;;4969425;28;20118;-69
2022/05/25 02:31:54;;;;;;;15.45;11.98;;;9.70;99.90;;;;;;4968605;28;20047;-68
2022/05/25 02:34:23;;;;;;;19.42;12.95;;;9.70;99.90;;;;;;4968633;28;20045;-69
2022/05/25 02:36:49;;;;;;;;;;;9.70;99.90;;;;;;4969898;28;20054;-70
2022/05/25 02:39:15;;;;;;;17.85;13.13;;;9.70;99.90;;;;;;4968312;28;20012;-69
2022/05/25 02:41:53;;;;;;;19.27;13.35;;;9.70;99.90;;;;;;4973544;28;20492;-69
2022/05/25 02:44:19;;;;;;;21.60;13.68;;;9.80;99.90;;;;;;4968591;28;20062;-69
2022/05/25 02:46:45;;;;;;;19.25;13.63;;;9.70;99.90;;;;;;4968186;28;20061;-69
2022/05/25 02:49:12;;;;;;;16.02;13.20;;;9.80;99.90;;;;;;4973376;28;20039;-69
2022/05/25 02:51:38;;;;;;;19.50;13.57;;;9.80;99.90;;;;;;4955108;28;20114;-68
2022/05/25 02:54:05;;;;;;;18.45;12.88;;;9.80;99.90;;;;;;4968220;28;20042;-68
2022/05/25 02:56:31;;;;;;;20.88;14.45;;;9.80;99.90;;;;;;4969238;28;20035;-69
2022/05/25 02:58:57;;;;;;;19.38;14.35;;;9.80;99.90;;;;;;4966006;28;20122;-69
2022/05/25 03:01:26;;;;;;;17.83;14.10;;;9.80;99.90;;;;;;4968452;28;20051;-69
2022/05/25 03:03:51;;;;;;;17.73;13.93;;;9.80;99.90;;;;;;4965726;28;20435;-68
2022/05/25 03:06:18;;;;;;;19.52;14.00;;;9.80;99.90;;;;;;4968479;28;20057;-68
2022/05/25 03:08:44;;;;;;;19.10;13.63;;;9.70;99.90;;;;;;4971108;28;20051;-68
2022/05/25 03:11:10;;;;;;;23.50;14.20;;;9.80;99.90;;;;;;4963247;28;20039;-68
2022/05/25 03:13:36;;;;;;;19.35;14.63;;;9.80;99.90;;;;;;4970384;28;20046;-68
2022/05/25 03:16:04;;;;;;;20.50;13.77;;;10.10;99.90;;;;;;4966641;28;20748;-69
2022/05/25 03:18:30;;;;;;;23.67;14.82;;;9.70;99.90;;;;;;4965652;28;20524;-68
2022/05/25 03:20:56;;;;;;;21.05;14.07;;;9.70;99.90;;;;;;4964784;28;20043;-68
2022/05/25 03:23:22;;;;;;;18.55;14.02;;;9.70;99.90;;;;;;4970487;28;20093;-68
2022/05/25 03:25:48;;;;;;;26.73;14.40;;;9.70;99.90;;;;;;4971257;28;20039;-69
2022/05/25 03:28:15;;;;;;;20.10;14.85;;;9.70;99.90;;;;;;4977251;28;20126;-69
2022/05/25 03:30:43;;;;;;;24.38;13.40;;;9.70;99.90;;;;;;4970344;28;20050;-69
2022/05/25 03:33:09;;;;;;;21.42;14.73;;;9.70;99.90;;;;;;4970246;28;20043;-68
2022/05/25 03:35:36;;;;;;;21.52;14.75;;;9.70;99.90;;;;;;4966818;28;20061;-69
2022/05/25 03:38:02;;;;;;;19.37;13.77;;;9.70;99.90;;;;;;4974702;28;20047;-68
2022/05/25 03:40:28;;;;;;;21.27;14.75;;;9.70;99.90;;;;;;4972032;28;20046;-69
2022/05/25 03:42:54;;;;;;;25.45;14.52;;;9.70;99.90;;;;;;4971694;28;20049;-69
2022/05/25 03:45:20;;;;;;;22.80;13.60;;;9.60;99.90;;;;;;4972503;28;20037;-69
2022/05/25 03:47:46;;;;;;;26.73;14.60;;;9.60;99.90;;;;;;4966848;28;20125;-69
2022/05/25 03:50:12;;;;;;;19.05;14.93;;;9.60;99.90;;;;;;4986974;28;20457;-69
2022/05/25 03:52:38;;;;;;;20.38;13.90;;;9.70;99.90;;;;;;4973342;28;20548;-69
2022/05/25 03:55:07;;;;;;;20.45;14.02;;;9.70;99.90;;;;;;4969010;28;20043;-69
2022/05/25 03:57:32;;;;;;;22.05;14.75;;;9.60;99.90;;;;;;4970301;28;20159;-69
2022/05/25 03:59:59;;;;;;;23.63;15.13;;;9.70;99.90;;;;;;4987848;28;20035;-69
2022/05/25 04:02:25;;;;;;;21.55;15.05;;;9.60;99.90;;;;;;4973103;28;20042;-69
2022/05/25 04:05:07;;;;;;;22.65;14.38;;;9.70;99.90;;;;;;4971160;28;20046;-69
2022/05/25 04:07:37;;;;;;;24.17;14.68;;;9.70;99.90;;;;;;4969681;28;20078;-69
2022/05/25 04:10:05;;;;;;;19.67;14.50;;;9.70;99.90;;;;;;4970725;28;20043;-69
2022/05/25 04:12:31;;;;;;;20.30;14.35;;;9.70;99.90;;;;;;4968389;28;20042;-69
2022/05/25 04:14:57;;;;;;;23.42;15.20;;;9.70;99.90;;;;;;4985350;28;20046;-68
2022/05/25 04:17:23;;;;;;;25.40;15.73;;;9.70;99.90;;;;;;4971160;28;20054;-69
2022/05/25 04:19:50;;;;;;;20.35;15.10;;;9.70;99.90;;;;;;4967204;28;20042;-68
2022/05/25 04:22:16;;;;;;;21.17;14.00;;;9.70;99.90;;;;;;4970372;28;20102;-68
2022/05/25 04:24:42;;;;;;;21.27;14.15;;;9.70;99.90;;;;;;4967220;28;20481;-68
2022/05/25 04:27:08;;;;;;;22.65;14.60;;;9.70;99.90;;;;;;4972443;28;20129;-69
2022/05/25 04:29:36;;;;;;;22.02;13.65;;;9.70;99.90;;;;;;4968139;28;20039;-69
2022/05/25 04:32:03;;;;;;;23.45;13.93;;;9.80;99.90;;;;;;4969847;28;20057;-68
2022/05/25 04:34:29;;;;;;;17.88;13.70;;;9.80;99.90;;;;;;4961156;28;20043;-69
2022/05/25 04:36:55;;;;;;;19.52;13.75;;;10.00;99.90;;;;;;4970720;28;20065;-69
2022/05/25 04:39:20;;;;;;;19.35;14.30;;;9.90;99.90;;;;;;4972461;28;20041;-68
2022/05/25 04:41:46;;;;;;;19.80;13.23;;;9.90;99.90;;;;;;4962677;28;20059;-69
2022/05/25 04:44:12;;;;;;;23.38;13.80;;;10.00;99.90;;;;;;4971127;28;20034;-69
2022/05/25 04:46:37;;;;;;;18.75;13.65;;;10.00;99.90;;;;;;4953583;28;20137;-70
2022/05/25 04:49:03;;;;;;;25.40;13.40;;;10.10;99.90;;;;;;4971333;28;20669;-69
2022/05/25 04:51:29;;;;;;;20.10;14.30;;;10.10;99.90;;;;;;4972870;28;20580;-69
2022/05/25 04:53:54;;;;;;;16.92;12.77;;;10.20;99.90;;;;;;4951710;28;20137;-69
2022/05/25 04:59:04;;;;;;;19.63;13.10;;;10.20;99.90;;;;;;4968836;28;20079;-68
2022/05/25 05:01:30;;;;;;;17.80;12.43;;;10.30;99.90;;;;;;4970121;28;20117;-69
2022/05/25 05:03:56;;;;;;;16.55;12.63;;;10.40;99.90;;;;;;4969223;28;20042;-69
2022/05/25 05:06:22;;;;;;;17.33;12.68;;;10.40;99.90;;;;;;4970086;28;20043;-69
2022/05/25 05:08:48;;;;;;;18.48;13.68;;;10.40;99.90;;;;;;4967061;28;20097;-69
2022/05/25 05:11:16;;;;;;;19.80;12.63;;;10.50;99.90;;;;;;4966896;28;20081;-69
2022/05/25 05:13:42;;;;;;;17.92;12.27;;;10.60;99.90;;;;;;4961330;28;20046;-69
2022/05/25 05:16:13;;;;;;;18.30;12.45;;;10.60;99.90;;;;;;4969401;28;20050;-69
2022/05/25 05:18:39;;;;;;;16.77;12.73;;;10.70;99.90;;;;;;4971152;28;20105;-69
2022/05/25 05:21:05;;;;;;;19.08;12.40;;;10.80;99.90;;;;;;4970333;28;20042;-68
2022/05/25 05:23:31;;;;;;;16.33;11.77;;;10.80;99.90;;;;;;4953430;28;20409;-69
2022/05/25 05:25:56;;;;;;;17.80;11.23;;;10.90;99.90;;;;;;4976854;28;20042;-71
2022/05/25 05:28:30;;;;;;;15.60;11.27;;;11.00;99.90;;;;;;4975205;28;20042;-68
2022/05/25 05:30:58;;;;;;;17.30;12.20;;;11.00;99.90;;;;;;4965999;28;20062;-68
2022/05/25 05:33:25;;;;;;;17.45;12.00;;;11.10;99.90;;;;;;4965572;28;20074;-70
2022/05/25 05:36:09;;;;;;;20.77;12.27;;;11.20;99.90;;;;;;4970968;28;20178;-69
2022/05/25 05:38:59;;;;;;;16.70;11.70;;;11.30;99.90;;;;;;4965952;28;20043;-68
2022/05/25 05:41:30;;;;;;;17.75;11.10;;;11.40;99.90;;;;;;4980693;28;20050;-70
2022/05/25 05:43:56;;;;;;;19.23;11.38;;;11.40;99.90;;;;;;4966212;28;20043;-68
2022/05/25 05:46:22;;;;;;;17.40;11.32;;;11.50;99.90;;;;;;4964998;28;20510;-69
2022/05/25 05:48:48;;;;;;;19.05;11.73;;;11.60;99.90;;;;;;4966137;28;20555;-69
2022/05/25 05:51:13;;;;;;;15.05;10.95;;;11.60;99.90;;;;;;4970500;28;20084;-69
2022/05/25 05:53:40;;;;;;;16.33;10.82;;;11.80;99.90;;;;;;4939191;28;20089;-70
2022/05/25 05:56:07;;;;;;;18.13;11.57;;;11.80;99.90;;;;;;4954759;28;20110;-69
2022/05/25 05:58:32;;;;;;;17.10;10.73;;;12.00;99.90;;;;;;4973331;28;20158;-70
2022/05/25 06:00:58;;;;;;;16.35;10.30;;;12.00;99.90;;;;;;4969243;28;20232;-70
2022/05/25 06:03:24;;;;;;;14.63;10.63;;;12.10;99.90;;;;;;4956411;28;20046;-69
2022/05/25 06:05:49;;;;;;;14.05;10.65;;;12.20;99.90;;;;;;4962759;28;20039;-70
2022/05/25 06:08:23;;;;;;;18.00;10.43;;;12.40;99.90;;;;;;4964962;28;20093;-69
2022/05/25 06:10:50;;;;;;;16.35;10.50;;;12.50;99.90;;;;;;4961673;28;20050;-69
2022/05/25 06:13:16;;;;;;;16.30;9.55;;;12.70;99.90;;;;;;4970811;28;20042;-69
2022/05/25 06:21:16;;;;;;;15.73;9.00;;;13.00;99.90;;;;;;4969903;28;20054;-69
2022/05/25 06:23:42;;;;;;;13.40;8.40;;;13.10;99.90;;;;;;4980647;28;20039;-69
2022/05/25 06:26:08;;;;;;;12.15;8.25;;;13.20;99.90;;;;;;4965596;28;20189;-70
2022/05/25 06:28:34;;;;;;;9.32;7.72;;;13.40;99.90;;;;;;4984043;28;20058;-69
2022/05/25 06:31:00;;;;;;;12.95;8.02;;;13.40;99.90;;;;;;4967313;28;20043;-70
2022/05/25 06:33:26;;;;;;;10.88;7.95;;;13.60;99.90;;;;;;4968108;28;20047;-69
2022/05/25 06:35:51;;;;;;;11.38;7.82;;;13.80;99.90;;;;;;4971147;28;20482;-69
2022/05/25 06:38:17;;;;;;;11.63;6.57;;;13.90;99.90;;;;;;4970945;28;20121;-70
2022/05/25 06:40:42;;;;;;;12.93;7.45;;;14.10;99.90;;;;;;4971566;28;20041;-70
2022/05/25 06:43:08;;;;;;;13.90;7.22;;;14.20;99.90;;;;;;4970849;28;20126;-70
2022/05/25 06:45:34;;;;;;;16.38;6.70;;;14.30;99.90;;;;;;4971335;28;20461;-70
2022/05/25 06:48:02;;;;;;;9.80;6.47;;;14.40;99.90;;;;;;4968866;28;20118;-70
2022/05/25 06:50:28;;;;;;;12.20;6.63;;;14.50;99.90;;;;;;4973676;28;20047;-70
2022/05/25 06:52:54;;;;;;;8.68;6.20;;;14.60;99.90;;;;;;4964781;28;20050;-69
2022/05/25 06:55:20;;;;;;;11.57;6.10;;;14.70;99.90;;;;;;4964430;28;20454;-69
2022/05/25 06:57:45;;;;;;;10.75;6.22;;;14.80;99.90;;;;;;4963209;28;20047;-69
2022/05/25 07:00:12;;;;;;;9.93;6.03;;;14.90;99.90;;;;;;4966558;28;20589;-69
2022/05/25 07:02:37;;;;;;;10.25;6.55;;;15.00;99.90;;;;;;4978886;28;20122;-69
2022/05/25 07:05:04;;;;;;;10.48;5.75;;;15.20;99.90;;;;;;4969682;28;20138;-68
2022/05/25 07:07:31;;;;;;;6.57;4.50;;;15.20;99.90;;;;;;4967873;28;20358;-69
2022/05/25 07:09:57;;;;;;;8.93;5.25;;;15.40;99.90;;;;;;4963687;28;20057;-69
2022/05/25 07:12:23;;;;;;;14.95;5.80;;;15.40;99.90;;;;;;4966345;28;20086;-69
2022/05/25 07:14:49;;;;;;;8.15;5.13;;;15.40;99.90;;;;;;4969139;28;20035;-69
2022/05/25 07:17:14;;;;;;;8.38;4.72;;;15.50;99.90;;;;;;4970949;28;20121;-70
2022/05/25 07:19:40;;;;;;;9.43;4.85;;;15.40;99.90;;;;;;4970341;28;20105;-68
2022/05/25 07:22:10;;;;;;;9.00;4.57;;;15.40;99.90;;;;;;4971639;28;20082;-69
2022/05/25 07:24:36;;;;;;;6.28;4.70;;;15.50;99.90;;;;;;4969843;28;20035;-69
2022/05/25 07:27:02;;;;;;;6.78;4.60;;;15.70;99.90;;;;;;4968896;28;20047;-70
2022/05/25 07:29:28;;;;;;;8.07;5.07;;;15.70;99.90;;;;;;4969436;28;20098;-69
2022/05/25 07:31:58;;;;;;;7.53;3.88;;;15.80;99.90;;;;;;4968605;28;20501;-69
2022/05/25 07:34:34;;;;;;;10.05;4.63;;;16.00;99.90;;;;;;4962472;28;20465;-69
2022/05/25 07:37:05;;;;;;;8.10;4.57;;;16.20;99.90;;;;;;4971494;28;20462;-67
2022/05/25 07:39:40;;;;;;;10.48;4.82;;;16.20;99.90;;;;;;4969003;28;20453;-68
2022/05/25 07:42:07;;;;;;;7.80;4.50;;;16.30;99.90;;;;;;4982778;28;20098;-68
2022/05/25 07:44:57;;;;;;;10.13;4.60;;;16.50;99.90;;;;;;4969600;28;20117;-68
2022/05/25 07:47:25;;;;;;;9.82;5.05;;;16.60;99.90;;;;;;4969749;28;20050;-67
2022/05/25 07:49:50;;;;;;;8.23;5.05;;;16.70;99.90;;;;;;4969145;28;20125;-68
2022/05/25 07:52:16;;;;;;;8.70;5.00;;;16.70;99.90;;;;;;4962290;28;20130;-68
2022/05/25 07:54:43;;;;;;;7.90;4.93;;;16.80;99.90;;;;;;4985124;28;20449;-68
2022/05/25 07:57:10;;;;;;;11.45;5.70;;;17.00;99.90;;;;;;4969023;28;20046;-68
2022/05/25 07:59:36;;;;;;;8.55;4.15;;;17.10;99.90;;;;;;4966007;28;20043;-69
2022/05/25 08:07:40;;;;;;;11.50;4.25;;;17.30;99.90;;;;;;4969020;28;20066;-67
2022/05/25 08:10:16;;;;;;;6.70;3.70;;;17.10;99.90;;;;;;4971826;28;20035;-68
2022/05/25 08:12:44;;;;;;;7.43;3.90;;;17.00;99.90;;;;;;4973900;28;20485;-69
2022/05/25 08:15:12;;;;;;;6.75;3.78;;;16.90;99.90;;;;;;4973804;28;20038;-68
2022/05/25 08:17:37;;;;;;;7.03;3.92;;;17.00;99.90;;;;;;4972129;28;20099;-68
2022/05/25 08:20:04;;;;;;;7.03;3.60;;;17.20;99.90;;;;;;4969639;28;20428;-69
2022/05/25 08:22:30;;;;;;;6.30;4.13;;;17.30;99.90;;;;;;4970510;28;20134;-69
2022/05/25 08:24:56;;;;;;;8.57;3.70;;;17.30;99.90;;;;;;4969920;28;20573;-68
2022/05/25 08:27:22;;;;;;;5.22;3.85;;;17.40;99.90;;;;;;4973953;28;20039;-68
2022/05/25 08:29:48;;;;;;;6.72;4.20;;;17.40;99.90;;;;;;4968456;28;20078;-68
2022/05/25 08:32:14;;;;;;;21.25;5.35;;;17.40;99.90;;;;;;4968653;28;20109;-69
2022/05/25 08:34:40;;;;;;;8.77;3.67;;;17.40;99.90;;;;;;4972809;28;20050;-68
2022/05/25 08:37:06;;;;;;;6.90;3.70;;;17.60;99.90;;;;;;4973673;28;20042;-68
2022/05/25 08:39:32;;;;;;;6.57;3.65;;;17.50;99.90;;;;;;4968984;28;20145;-67
2022/05/25 08:42:05;;;;;;;5.47;3.22;;;17.70;99.90;;;;;;4974157;28;20074;-67
2022/05/25 08:44:35;;;;;;;6.45;3.95;;;17.90;99.90;;;;;;4973507;28;20130;-69
2022/05/25 08:47:05;;;;;;;6.20;3.38;;;17.90;99.90;;;;;;4972084;28;20098;-69
2022/05/25 08:49:33;;;;;;;5.10;3.20;;;18.00;99.90;;;;;;4972788;28;20046;-68
2022/05/25 08:52:02;;;;;;;4.90;2.97;;;17.90;99.90;;;;;;4972510;28;20035;-69
2022/05/25 08:54:28;;;;;;;4.68;2.70;;;18.10;99.90;;;;;;4973188;28;20053;-68
2022/05/25 08:57:09;;;;;;;7.95;2.80;;;18.00;99.90;;;;;;4970232;28;20094;-67
2022/05/25 08:59:41;;;;;;;5.53;2.75;;;18.00;99.90;;;;;;4973870;28;20101;-67
2022/05/25 09:02:20;;;;;;;5.68;2.90;;;18.10;99.90;;;;;;4966144;28;20586;-68
2022/05/25 09:04:51;;;;;;;4.82;2.88;;;18.10;99.90;;;;;;4982718;28;20588;-68
2022/05/25 09:07:44;;;;;;;5.47;2.80;;;18.10;99.90;;;;;;4972166;28;20407;-69
2022/05/25 09:10:13;;;;;;;6.53;3.53;;;18.20;99.90;;;;;;4970163;28;20069;-68
2022/05/25 09:13:03;;;;;;;7.05;3.20;;;18.10;99.90;;;;;;4971950;28;20054;-68
2022/05/25 09:15:34;;;;;;;5.63;3.75;;;18.10;99.90;;;;;;4963666;28;20050;-67
2022/05/25 09:18:03;;;;;;;6.32;3.45;;;18.20;99.90;;;;;;4965584;28;20525;-68
2022/05/25 09:20:35;;;;;;;6.40;3.60;;;18.20;99.90;;;;;;4969959;28;20118;-68
2022/05/25 09:23:01;;;;;;;6.18;2.88;;;18.20;99.90;;;;;;4970458;28;21683;-68
2022/05/25 09:25:27;;;;;;;5.10;2.92;;;18.10;99.90;;;;;;4967600;28;20473;-68
2022/05/25 09:28:20;;;;;;;5.45;2.78;;;18.20;99.90;;;;;;4969534;28;20031;-69
2022/05/25 09:30:51;;;;;;;6.72;2.75;;;18.40;99.90;;;;;;4980044;28;20047;-69
2022/05/25 09:33:32;;;;;;;3.72;2.90;;;18.50;99.90;;;;;;4965038;28;20081;-68
2022/05/25 09:36:02;;;;;;;8.77;3.40;;;18.60;99.90;;;;;;4964017;28;20113;-68
2022/05/25 09:38:42;;;;;;;6.68;3.03;;;18.60;99.90;;;;;;4961843;28;20381;-68
2022/05/25 09:41:14;;;;;;;5.38;2.53;;;18.80;99.90;;;;;;4962814;28;20493;-67
2022/05/25 09:43:41;;;;;;;6.28;2.40;;;18.90;99.90;;;;;;4971175;28;20090;-70
2022/05/25 09:46:39;;;;;;;6.10;2.30;;;18.90;99.90;;;;;;4974206;28;20105;-69
2022/05/25 09:49:08;;;;;;;5.57;2.53;;;18.70;99.50;;;;;;4973706;28;20055;-67
2022/05/25 09:51:43;;;;;;;6.85;2.30;;;18.50;99.90;;;;;;4973062;28;20405;-69
2022/05/25 09:54:20;;;;;;;6.82;2.83;;;18.30;99.90;;;;;;4968453;28;20044;-68
2022/05/25 09:56:53;;;;;;;4.75;2.60;;;18.20;99.90;;;;;;4963737;28;20074;-69
2022/05/25 09:59:50;;;;;;;3.80;2.40;;;18.30;99.90;;;;;;4973526;28;20065;-68
2022/05/25 10:02:29;;;;;;;6.30;2.60;;;18.30;99.90;;;;;;4955115;28;20519;-68
2022/05/25 10:05:05;;;;;;;6.35;2.88;;;18.40;99.90;;;;;;4973440;28;20493;-68
2022/05/25 10:07:36;;;;;;;4.63;2.90;;;18.50;99.90;;;;;;4971098;28;20390;-68
2022/05/25 10:10:13;;;;;;;8.15;3.50;;;18.40;99.90;;;;;;4971886;28;20137;-68
2022/05/25 10:12:45;;;;;;;5.90;2.83;;;18.40;99.90;;;;;;4987277;28;20675;-68
2022/05/25 10:15:14;;;;;;;4.85;2.90;;;18.40;99.90;;;;;;4969748;28;20051;-68
2022/05/25 10:17:46;;;;;;;5.90;2.53;;;18.50;99.90;;;;;;4970372;28;20043;-68
2022/05/25 10:20:28;;;;;;;5.18;2.60;;;18.60;99.90;;;;;;4972051;28;20046;-68
2022/05/25 10:23:27;;;;;;;4.47;2.45;;;18.50;99.90;;;;;;4970341;28;20047;-69
2022/05/25 10:26:06;;;;;;;7.30;3.30;;;18.40;99.90;;;;;;4973482;28;20059;-69
2022/05/25 10:28:52;;;;;;;6.82;2.80;;;18.20;99.90;;;;;;4970894;28;20413;-69
2022/05/25 10:37:06;;;;;;;5.40;3.00;;;17.60;99.90;;;;;;4972228;28;20055;-68
2022/05/25 10:39:36;;;;;;;6.80;3.28;;;17.50;99.90;;;;;;4971658;28;20061;-69
2022/05/25 10:42:22;;;;;;;8.65;3.30;;;17.50;99.90;;;;;;4972475;28;20086;-68
2022/05/25 10:44:53;;;;;;;5.47;3.03;;;17.60;99.90;;;;;;4970699;28;20049;-69
2022/05/25 10:47:39;;;;;;;5.25;2.78;;;17.50;99.90;;;;;;4972368;28;20174;-68
2022/05/25 10:50:13;;;;;;;5.20;3.33;;;17.50;99.90;;;;;;4974834;28;20058;-68
2022/05/25 10:52:45;;;;;;;5.88;2.95;;;17.50;99.90;;;;;;4972745;28;20122;-68
2022/05/25 10:55:11;;;;;;;6.03;3.30;;;17.50;99.90;;;;;;4970772;28;20054;-68
2022/05/25 10:57:54;;;;;;;5.03;3.20;;;17.50;99.90;;;;;;4972393;28;20042;-68
2022/05/25 11:00:32;;;;;;;6.20;3.47;;;17.40;99.90;;;;;;4970610;28;20097;-69
2022/05/25 11:03:31;;;;;;;7.20;3.80;;;17.30;99.90;;;;;;4971066;28;20038;-68
2022/05/25 11:06:26;;;;;;;6.40;3.50;;;17.10;99.90;;;;;;4961358;28;20043;-69
2022/05/25 11:09:21;;;;;;;5.25;4.05;;;17.00;99.90;;;;;;4966789;28;20047;-66
2022/05/25 11:12:14;;;;;;;8.77;4.72;;;16.80;99.90;;;;;;4966421;28;20125;-68
2022/05/25 11:15:21;;;;;;;11.35;5.07;;;16.50;99.90;;;;;;4969512;28;20047;-68
2022/05/25 11:18:13;;;;;;;11.50;5.93;;;16.30;99.90;;;;;;4966036;28;20058;-68
2022/05/25 11:20:56;;;;;;;7.93;5.15;;;16.10;99.90;;;;;;4967746;28;20050;-68
2022/05/25 11:23:35;;;;;;;6.95;4.82;;;15.80;99.90;;;;;;4976460;28;20042;-70
2022/05/25 11:26:31;;;;;;;12.07;5.40;;;15.50;99.90;;;;;;4968698;28;20456;-68
2022/05/25 11:29:34;;;;;;;10.00;5.80;;;15.50;99.90;;;;;;4964894;28;20046;-69
2022/05/25 11:32:24;;;;;;;8.10;4.72;;;15.70;99.90;;;;;;4963564;28;20461;-71
2022/05/25 11:35:21;;;;;;;12.43;3.83;;;16.00;99.90;;;;;;4962564;28;20069;-69
2022/05/25 11:37:59;;;;;;;5.47;3.50;;;16.20;99.90;;;;;;4963423;28;20058;-69
2022/05/25 11:40:45;;;;;;;5.80;3.70;;;16.30;99.90;;;;;;4968044;28;20520;-69
2022/05/25 11:43:47;;;;;;;7.82;4.15;;;16.30;99.90;;;;;;4975985;28;20424;-69
2022/05/25 11:46:31;;;;;;;5.68;5.03;;;16.30;99.90;;;;;;4979914;28;20043;-68
2022/05/25 11:49:08;;;;;;;9.32;5.57;;;16.40;99.90;;;;;;4968648;28;20057;-69
2022/05/25 11:52:03;;;;;;;9.55;4.90;;;16.80;99.90;;;;;;4966159;28;20060;-68
2022/05/25 11:55:23;;;;;;;7.88;5.53;;;17.10;99.90;;;;;;4967938;28;20137;-69
2022/05/25 11:58:16;;;;;;;7.20;5.63;;;17.20;99.90;;;;;;4995179;28;20046;-69
2022/05/25 12:01:00;;;;;;;10.43;6.32;;;17.40;99.90;;;;;;4970204;28;20714;-69
2022/05/25 12:03:37;;;;;;;7.38;5.85;;;17.70;99.90;;;;;;4968566;28;20050;-69
2022/05/25 12:06:24;;;;;;;11.77;7.25;;;17.80;99.90;;;;;;4972188;28;20054;-68
2022/05/25 12:09:18;;;;;;;15.18;5.68;;;17.70;99.90;;;;;;4975614;28;20054;-67
2022/05/25 12:12:01;;;;;;;9.43;6.47;;;17.50;99.90;;;;;;4967165;28;20074;-68
2022/05/25 12:14:44;;;;;;;11.75;6.85;;;17.20;99.90;;;;;;4970973;28;20124;-69
2022/05/25 12:17:50;;;;;;;14.43;5.85;;;17.10;99.90;;;;;;4973662;28;20093;-70
2022/05/25 12:20:27;;;;;;;4.80;3.20;;;17.30;99.90;;;;;;4974102;28;20106;-68
2022/05/25 12:22:57;;;;;;;7.90;2.70;;;17.50;99.90;;;;;;4967016;28;20825;-68
2022/05/25 12:25:23;;;;;;;5.15;2.05;;;17.70;99.90;;;;;;4970161;28;20431;-69
2022/05/25 12:27:52;;;;;;;4.40;2.08;;;17.90;99.90;;;;;;4971212;28;20521;-69
2022/05/25 12:30:36;;;;;;;6.00;2.10;;;18.20;99.90;;;;;;4973687;28;20117;-69
2022/05/25 12:33:05;;;;;;;5.95;2.60;;;18.50;99.90;;;;;;4964651;28;20070;-68
2022/05/25 12:35:34;;;;;;;7.00;2.85;;;18.80;99.90;;;;;;4965385;28;20083;-68
2022/05/25 12:38:05;;;;;;;3.15;2.30;;;18.90;99.90;;;;;;4971359;28;20034;-68
2022/05/25 12:40:31;;;;;;;5.47;2.60;;;18.90;99.90;;;;;;4975014;28;20046;-68
2022/05/25 12:42:57;;;;;;;4.57;2.80;;;18.90;99.90;;;;;;4974142;28;20382;-69
2022/05/25 12:48:31;;;;;;;7.53;3.13;;;18.80;99.90;;;;;;4969819;28;20043;-68
2022/05/25 12:50:58;;;;;;;9.68;2.55;;;18.30;99.90;;;;;;4973384;28;20050;-68
2022/05/25 12:53:24;;;;;;;3.85;1.77;;;18.70;99.90;;;;;;4940478;28;20121;-69
2022/05/25 12:56:15;;;;;;;15.32;1.85;;;18.80;99.90;;;;;;4974293;28;20098;-67
2022/05/25 12:58:47;;;;;;;7.28;1.27;;;19.00;99.90;;;;;;4973669;28;20043;-67
2022/05/25 13:01:27;;;;;;;6.30;1.40;;;19.30;99.80;;;;;;4974085;28;20047;-68
2022/05/25 13:03:58;;;;;;;11.32;1.85;;;19.40;98.20;;;;;;4986931;28;20090;-68
2022/05/25 13:06:29;;;;;;;3.85;1.17;;;19.80;98.20;;;;;;4974359;28;20089;-69
2022/05/25 13:08:59;;;;;;;4.47;1.60;;;20.00;96.50;;;;;;4972449;28;20051;-68
2022/05/25 13:11:40;;;;;;;6.80;1.58;;;20.40;96.60;;;;;;4973653;28;20053;-68
2022/05/25 13:14:28;;;;;;;3.15;1.00;;;20.80;92.90;;;;;;4972803;28;20047;-69
2022/05/25 13:16:57;;;;;;;4.50;1.33;;;20.70;90.10;;;;;;4982332;28;20389;-69
2022/05/25 13:19:30;;;;;;;5.88;1.38;;;20.60;92.30;;;;;;4969313;28;20042;-69
2022/05/25 13:22:02;;;;;;;6.00;1.20;;;20.40;90.40;;;;;;4973147;28;20497;-68
2022/05/25 13:25:05;;;;;;;7.05;1.45;;;20.30;92.60;;;;;;4972193;28;20475;-68
2022/05/25 13:27:58;;;;;;;2.85;1.10;;;20.50;91.50;;;;;;4973132;28;20051;-66
2022/05/25 13:30:27;;;;;;;13.27;1.73;;;20.50;86.90;;;;;;4973214;28;20070;-69
2022/05/25 13:32:57;;;;;;;7.10;1.50;;;20.30;90.20;;;;;;4972818;28;20043;-69
2022/05/25 13:35:25;;;;;;;4.20;1.30;;;20.10;91.00;;;;;;4973136;28;20528;-66